Time;durP1;ratioP1;P1;durP2;ratioP2;P2;SDS_P1;SDS_P2;PMS_P1;PMS_P2;Temp;Humidity;BMP_temperature;BMP_pressure;BME280_temperature;BME280_humidity;BME280_pressure;Samples;Min_cycle;Max_cycle;Signal;HPM_P1;HPM_P2
2021/09/24 00:00:27;;;;;;;12.93;4.75;;;15.80;99.90;;;;;;4954786;28;20085;-59
2021/09/24 00:02:53;;;;;;;9.82;5.00;;;15.80;99.90;;;;;;4968695;28;20045;-59
2021/09/24 00:05:19;;;;;;;13.38;5.47;;;15.80;99.90;;;;;;4953109;28;20031;-60
2021/09/24 00:07:45;;;;;;;13.32;5.57;;;15.80;99.90;;;;;;4931011;28;20031;-60
2021/09/24 00:10:13;;;;;;;12.10;5.28;;;15.80;99.90;;;;;;4968591;28;20042;-57
2021/09/24 00:12:39;;;;;;;11.05;5.28;;;15.80;99.90;;;;;;4967820;28;20046;-60
2021/09/24 00:15:10;;;;;;;7.95;4.75;;;15.80;99.90;;;;;;4971696;28;20023;-57
2021/09/24 00:17:36;;;;;;;14.50;5.63;;;15.80;99.90;;;;;;4971198;28;20027;-57
2021/09/24 00:20:04;;;;;;;13.77;5.50;;;15.80;99.90;;;;;;4971252;28;20030;-57
2021/09/24 00:22:30;;;;;;;10.15;5.65;;;15.80;99.90;;;;;;4970937;28;20510;-55
2021/09/24 00:24:55;;;;;;;12.07;6.15;;;15.80;99.90;;;;;;4971792;28;20113;-59
2021/09/24 00:27:21;;;;;;;13.18;5.13;;;15.80;99.90;;;;;;4970186;28;20035;-57
2021/09/24 00:29:46;;;;;;;12.27;5.22;;;15.80;99.90;;;;;;4971155;28;20066;-59
2021/09/24 00:32:12;;;;;;;12.77;5.75;;;15.80;99.90;;;;;;4971336;28;20033;-55
2021/09/24 00:34:38;;;;;;;13.93;5.93;;;15.80;99.90;;;;;;4970672;28;20034;-56
2021/09/24 00:37:04;;;;;;;11.52;5.60;;;15.80;99.90;;;;;;4970910;28;20494;-57
2021/09/24 00:39:29;;;;;;;13.43;6.82;;;15.80;99.90;;;;;;4970744;28;20030;-56
2021/09/24 00:41:55;;;;;;;24.92;7.65;;;15.80;99.90;;;;;;4971141;28;20081;-58
2021/09/24 00:44:32;;;;;;;11.85;5.78;;;15.80;99.90;;;;;;4971026;28;20058;-57
2021/09/24 00:46:59;;;;;;;10.27;5.72;;;15.80;99.90;;;;;;4971319;28;20023;-56
2021/09/24 00:49:25;;;;;;;13.60;6.55;;;15.80;99.90;;;;;;4970065;28;20029;-57
2021/09/24 00:51:50;;;;;;;14.35;5.90;;;15.80;99.90;;;;;;4970393;28;20109;-55
2021/09/24 00:54:16;;;;;;;13.73;5.95;;;15.80;99.90;;;;;;4951019;28;20512;-56
2021/09/24 00:56:41;;;;;;;16.55;6.50;;;15.80;99.90;;;;;;4968961;28;20093;-58
2021/09/24 00:59:07;;;;;;;11.27;5.30;;;15.80;99.90;;;;;;4971394;28;20401;-58
2021/09/24 01:01:32;;;;;;;13.40;5.43;;;15.80;99.90;;;;;;4970654;28;20031;-57
2021/09/24 01:03:58;;;;;;;13.45;5.65;;;15.80;99.90;;;;;;4972105;28;20046;-58
2021/09/24 01:06:23;;;;;;;17.05;5.22;;;15.80;99.90;;;;;;4971092;28;20031;-57
2021/09/24 01:08:49;;;;;;;9.18;5.05;;;15.80;99.90;;;;;;4971540;28;20045;-56
2021/09/24 01:11:15;;;;;;;16.40;5.80;;;15.80;99.90;;;;;;4970053;28;20551;-55
2021/09/24 01:13:40;;;;;;;9.30;5.22;;;15.80;99.90;;;;;;4971437;28;20027;-56
2021/09/24 01:16:06;;;;;;;19.85;5.63;;;15.80;99.90;;;;;;4971691;28;20030;-56
2021/09/24 01:18:31;;;;;;;8.60;5.20;;;15.80;99.90;;;;;;4970629;28;20054;-58
2021/09/24 01:20:58;;;;;;;18.60;5.25;;;15.80;99.90;;;;;;4967105;28;20399;-53
2021/09/24 01:23:24;;;;;;;11.65;5.75;;;15.80;99.90;;;;;;4946258;28;20502;-56
2021/09/24 01:25:50;;;;;;;9.25;4.72;;;15.80;99.90;;;;;;4953911;28;20035;-56
2021/09/24 01:28:15;;;;;;;12.45;5.57;;;15.70;99.90;;;;;;4970949;28;20118;-58
2021/09/24 01:30:41;;;;;;;17.10;6.72;;;15.70;99.90;;;;;;4970054;28;20031;-56
2021/09/24 01:33:06;;;;;;;11.15;6.35;;;15.70;99.90;;;;;;4971480;28;20086;-56
2021/09/24 01:35:32;;;;;;;10.18;5.40;;;15.70;99.90;;;;;;4971197;28;20041;-55
2021/09/24 01:37:58;;;;;;;10.60;5.95;;;15.70;99.90;;;;;;4970008;28;20034;-56
2021/09/24 01:40:23;;;;;;;15.43;6.40;;;15.70;99.90;;;;;;4969971;28;20022;-58
2021/09/24 01:42:54;;;;;;;16.75;6.15;;;15.70;99.90;;;;;;4970326;28;20576;-58
2021/09/24 01:45:20;;;;;;;11.40;6.57;;;15.70;99.90;;;;;;4969107;28;20023;-57
2021/09/24 01:47:46;;;;;;;19.77;6.13;;;15.70;99.90;;;;;;4969081;28;20113;-57
2021/09/24 01:50:12;;;;;;;16.02;5.75;;;15.70;99.90;;;;;;4966888;28;20693;-58
2021/09/24 01:52:38;;;;;;;12.80;6.20;;;15.70;99.90;;;;;;4971233;28;20565;-58
2021/09/24 01:55:05;;;;;;;13.32;5.97;;;15.70;99.90;;;;;;4968408;28;20038;-57
2021/09/24 01:57:31;;;;;;;11.27;5.15;;;15.70;99.90;;;;;;4969642;28;20022;-55
2021/09/24 01:59:56;;;;;;;16.20;5.80;;;15.70;99.90;;;;;;4974324;28;20027;-57
2021/09/24 02:02:22;;;;;;;22.08;5.97;;;15.70;99.90;;;;;;4949185;28;20038;-59
2021/09/24 02:04:48;;;;;;;15.18;6.45;;;15.60;99.90;;;;;;4969824;28;20026;-58
2021/09/24 02:07:14;;;;;;;11.98;6.20;;;15.70;99.90;;;;;;4968856;28;20498;-55
2021/09/24 02:09:40;;;;;;;14.77;6.32;;;15.60;99.90;;;;;;4968696;28;20028;-58
2021/09/24 02:12:06;;;;;;;12.70;6.57;;;15.70;99.90;;;;;;4970460;28;20023;-57
2021/09/24 02:14:32;;;;;;;10.85;5.95;;;15.70;99.90;;;;;;4970627;28;20031;-57
2021/09/24 02:16:58;;;;;;;12.07;5.80;;;15.60;99.90;;;;;;4977020;28;20453;-57
2021/09/24 02:19:23;;;;;;;8.43;6.00;;;15.60;99.90;;;;;;4966551;28;20106;-57
2021/09/24 02:21:49;;;;;;;14.45;7.45;;;15.60;99.90;;;;;;4970255;28;20027;-58
2021/09/24 02:24:15;;;;;;;23.83;7.28;;;15.70;99.90;;;;;;4969138;28;20034;-58
2021/09/24 02:26:41;;;;;;;11.68;6.68;;;15.70;99.90;;;;;;4964440;28;20058;-56
2021/09/24 02:29:06;;;;;;;12.43;6.40;;;15.70;99.90;;;;;;4970230;28;20490;-58
2021/09/24 02:31:32;;;;;;;13.80;6.75;;;15.70;99.90;;;;;;4969768;28;20027;-57
2021/09/24 02:33:58;;;;;;;14.52;7.28;;;15.70;99.90;;;;;;4969930;28;20042;-58
2021/09/24 02:36:24;;;;;;;19.92;6.85;;;15.70;99.90;;;;;;4972007;28;20022;-57
2021/09/24 02:38:50;;;;;;;16.48;7.43;;;15.70;99.90;;;;;;4966787;28;20556;-56
2021/09/24 02:41:15;;;;;;;16.10;6.93;;;15.70;99.90;;;;;;4970129;28;20397;-53
2021/09/24 02:43:41;;;;;;;13.88;6.45;;;15.60;99.90;;;;;;4969432;28;20045;-56
2021/09/24 02:46:07;;;;;;;27.10;7.88;;;15.70;99.90;;;;;;4969406;28;20109;-58
2021/09/24 02:48:32;;;;;;;13.57;6.95;;;15.60;99.90;;;;;;4969660;28;20034;-56
2021/09/24 02:50:58;;;;;;;15.25;6.65;;;15.60;99.90;;;;;;4969835;28;20035;-56
2021/09/24 02:53:24;;;;;;;15.50;7.30;;;15.70;99.90;;;;;;4970045;28;20029;-58
2021/09/24 02:55:49;;;;;;;17.58;7.40;;;15.70;99.90;;;;;;4973524;28;20105;-57
2021/09/24 02:58:15;;;;;;;18.38;7.35;;;15.60;99.90;;;;;;4968006;28;20098;-59
2021/09/24 03:00:40;;;;;;;15.00;8.27;;;15.60;99.90;;;;;;4967021;28;20042;-59
2021/09/24 03:03:07;;;;;;;19.08;8.20;;;15.60;99.90;;;;;;4970472;28;20039;-54
2021/09/24 03:05:33;;;;;;;18.60;8.88;;;15.60;99.90;;;;;;4969804;28;20680;-58
2021/09/24 03:07:59;;;;;;;22.45;8.75;;;15.60;99.90;;;;;;4970147;28;20038;-58
2021/09/24 03:10:24;;;;;;;22.35;10.55;;;15.60;99.90;;;;;;4970064;28;20035;-54
2021/09/24 03:12:50;;;;;;;18.30;9.60;;;15.60;99.90;;;;;;4970156;28;20498;-56
2021/09/24 03:15:16;;;;;;;21.42;10.80;;;15.60;99.90;;;;;;4970039;28;20494;-56
2021/09/24 03:17:41;;;;;;;20.80;11.07;;;15.60;99.90;;;;;;4952957;28;20026;-56
2021/09/24 03:20:08;;;;;;;21.75;10.30;;;15.60;99.90;;;;;;4969953;28;20105;-58
2021/09/24 03:22:34;;;;;;;16.45;11.05;;;15.60;99.90;;;;;;4951830;28;20553;-57
2021/09/24 03:25:00;;;;;;;21.95;10.98;;;15.60;99.90;;;;;;4972328;28;20043;-57
2021/09/24 03:27:25;;;;;;;20.13;10.40;;;15.60;99.90;;;;;;4973915;28;20030;-54
2021/09/24 03:29:51;;;;;;;21.30;10.20;;;15.60;99.90;;;;;;4973806;28;20475;-57
2021/09/24 03:32:19;;;;;;;16.30;9.93;;;15.60;99.90;;;;;;4973719;28;20026;-56
2021/09/24 03:34:48;;;;;;;18.25;8.55;;;15.60;99.90;;;;;;4973304;28;20027;-57
2021/09/24 03:37:14;;;;;;;15.40;9.45;;;15.50;99.90;;;;;;4972751;28;20030;-54
2021/09/24 03:39:39;;;;;;;18.55;10.93;;;15.50;99.90;;;;;;4972540;28;20027;-56
2021/09/24 03:42:06;;;;;;;20.60;9.35;;;15.60;99.90;;;;;;4972238;28;20095;-57
2021/09/24 03:44:32;;;;;;;20.10;10.57;;;15.50;99.90;;;;;;4973165;28;20042;-55
2021/09/24 03:46:57;;;;;;;19.95;10.00;;;15.50;99.90;;;;;;4973555;28;20038;-56
2021/09/24 03:49:24;;;;;;;22.08;9.48;;;15.50;99.90;;;;;;4973576;28;20049;-58
2021/09/24 03:51:50;;;;;;;18.10;9.25;;;15.50;99.90;;;;;;4973158;28;20034;-57
2021/09/24 03:54:17;;;;;;;21.05;11.32;;;15.50;99.90;;;;;;4972872;28;20038;-58
2021/09/24 03:56:43;;;;;;;18.83;12.00;;;15.50;99.90;;;;;;4973352;28;20410;-58
2021/09/24 03:59:10;;;;;;;19.95;12.18;;;15.50;99.90;;;;;;4973053;28;20041;-54
2021/09/24 04:01:36;;;;;;;18.30;12.65;;;15.50;99.90;;;;;;4971473;28;20031;-55
2021/09/24 04:04:01;;;;;;;25.00;13.93;;;15.50;99.90;;;;;;4973076;28;20064;-57
2021/09/24 04:06:27;;;;;;;27.13;13.73;;;15.50;99.90;;;;;;4973101;28;20529;-57
2021/09/24 04:08:53;;;;;;;29.90;15.80;;;15.50;99.90;;;;;;4972697;28;20417;-57
2021/09/24 04:11:18;;;;;;;33.50;15.65;;;15.50;99.90;;;;;;4972788;28;20038;-57
2021/09/24 04:13:44;;;;;;;27.00;16.20;;;15.50;99.90;;;;;;4972407;28;20038;-55
2021/09/24 04:16:09;;;;;;;36.15;16.95;;;15.50;99.90;;;;;;4972943;28;20105;-56
2021/09/24 04:21:09;;;;;;;28.90;16.90;;;15.50;99.90;;;;;;4981578;28;20053;-52
2021/09/24 04:23:35;;;;;;;31.98;16.83;;;15.50;99.90;;;;;;4991943;28;20030;-59
2021/09/24 04:26:01;;;;;;;31.65;17.42;;;15.40;99.90;;;;;;4992399;28;20486;-58
2021/09/24 04:28:27;;;;;;;33.10;17.58;;;15.40;99.90;;;;;;4992175;28;20041;-58
2021/09/24 04:30:53;;;;;;;32.85;17.00;;;15.40;99.90;;;;;;4991931;28;20042;-58
2021/09/24 04:33:18;;;;;;;35.05;18.17;;;15.40;99.90;;;;;;4992432;28;20512;-60
2021/09/24 04:35:44;;;;;;;26.73;17.77;;;15.40;99.90;;;;;;4991087;28;20134;-58
2021/09/24 04:38:10;;;;;;;35.65;19.55;;;15.40;99.90;;;;;;4991609;28;20374;-54
2021/09/24 04:40:35;;;;;;;30.63;17.50;;;15.40;99.90;;;;;;4991897;28;20097;-58
2021/09/24 04:43:01;;;;;;;32.47;19.58;;;15.40;99.90;;;;;;4991695;28;20102;-57
2021/09/24 04:45:27;;;;;;;34.15;20.85;;;15.40;99.90;;;;;;4991933;28;20044;-59
2021/09/24 04:47:53;;;;;;;33.88;20.05;;;15.40;99.90;;;;;;4991188;28;20031;-53
2021/09/24 04:50:18;;;;;;;30.90;20.48;;;15.40;99.90;;;;;;4992233;28;20032;-58
2021/09/24 04:52:44;;;;;;;37.15;21.70;;;15.40;99.90;;;;;;4991970;28;20030;-58
2021/09/24 04:55:10;;;;;;;35.53;22.42;;;15.40;99.90;;;;;;4989315;28;20576;-50
2021/09/24 04:57:36;;;;;;;37.13;23.52;;;15.40;99.90;;;;;;4990846;28;20477;-58
2021/09/24 05:00:05;;;;;;;38.33;24.58;;;15.30;99.90;;;;;;4991504;28;20102;-59
2021/09/24 05:02:30;;;;;;;36.80;24.40;;;15.30;99.90;;;;;;4992297;28;20049;-57
2021/09/24 05:04:56;;;;;;;46.15;25.75;;;15.30;99.90;;;;;;4990947;28;20513;-59
2021/09/24 05:07:21;;;;;;;45.85;27.08;;;15.30;99.90;;;;;;4990729;28;20037;-59
2021/09/24 05:09:47;;;;;;;51.90;29.90;;;15.30;99.90;;;;;;4991664;28;20382;-60
2021/09/24 05:12:12;;;;;;;50.55;29.52;;;15.30;99.90;;;;;;4991160;28;20062;-59
2021/09/24 05:14:38;;;;;;;49.88;29.77;;;15.30;99.90;;;;;;4991396;28;20034;-59
2021/09/24 05:17:04;;;;;;;50.17;29.15;;;15.30;99.90;;;;;;4991187;28;20076;-54
2021/09/24 05:19:29;;;;;;;62.30;32.53;;;15.30;99.90;;;;;;4991115;28;20486;-60
2021/09/24 05:21:55;;;;;;;58.95;32.78;;;15.30;99.90;;;;;;4989842;28;20084;-59
2021/09/24 05:24:20;;;;;;;53.22;31.00;;;15.30;99.90;;;;;;4991058;28;20031;-59
2021/09/24 05:26:46;;;;;;;51.58;33.03;;;15.30;99.90;;;;;;4991397;28;20030;-59
2021/09/24 05:29:11;;;;;;;47.72;31.58;;;15.30;99.90;;;;;;4990689;28;20034;-53
2021/09/24 05:31:37;;;;;;;50.97;32.28;;;15.30;99.90;;;;;;4991158;28;20050;-59
2021/09/24 05:34:03;;;;;;;57.47;32.50;;;15.30;99.90;;;;;;4990801;28;20034;-59
2021/09/24 05:36:29;;;;;;;50.55;33.33;;;15.30;99.90;;;;;;4990997;28;20018;-60
2021/09/24 05:38:55;;;;;;;54.80;33.70;;;15.30;99.90;;;;;;4990772;28;20040;-57
2021/09/24 05:41:20;;;;;;;49.70;32.45;;;15.30;99.90;;;;;;4990246;28;20054;-58
2021/09/24 05:43:48;;;;;;;48.13;33.22;;;15.30;99.90;;;;;;4990689;28;20098;-60
2021/09/24 05:46:14;;;;;;;50.80;33.90;;;15.30;99.90;;;;;;4991294;28;20126;-57
2021/09/24 05:48:39;;;;;;;57.25;34.25;;;15.30;99.90;;;;;;4990207;28;20460;-56
2021/09/24 05:51:05;;;;;;;49.55;33.88;;;15.30;99.90;;;;;;4990943;28;20030;-57
2021/09/24 05:53:32;;;;;;;66.30;39.60;;;15.20;99.90;;;;;;4921058;28;20046;-54
2021/09/24 05:55:57;;;;;;;70.00;44.63;;;15.30;99.90;;;;;;4989371;28;20061;-58
2021/09/24 05:58:23;;;;;;;47.88;33.28;;;15.30;99.90;;;;;;4988645;28;20057;-58
2021/09/24 06:00:48;;;;;;;51.92;33.35;;;15.20;99.90;;;;;;4988607;28;20122;-58
2021/09/24 06:03:14;;;;;;;47.78;32.78;;;15.30;99.90;;;;;;4989972;28;20034;-50
2021/09/24 06:05:40;;;;;;;59.17;37.80;;;15.20;99.90;;;;;;4989578;28;20030;-58
2021/09/24 06:08:05;;;;;;;50.70;34.25;;;15.20;99.90;;;;;;4988239;28;20065;-60
2021/09/24 06:10:31;;;;;;;48.40;31.70;;;15.30;99.90;;;;;;4988241;28;20046;-56
2021/09/24 06:12:57;;;;;;;49.10;29.98;;;15.30;99.90;;;;;;4988950;28;20038;-58
2021/09/24 06:15:24;;;;;;;56.53;32.55;;;15.30;99.90;;;;;;4988823;28;20033;-59
2021/09/24 06:17:50;;;;;;;48.38;31.88;;;15.20;99.90;;;;;;4987939;28;20030;-59
2021/09/24 06:20:17;;;;;;;49.35;33.58;;;15.30;99.90;;;;;;4988737;28;20113;-59
2021/09/24 06:22:43;;;;;;;45.35;30.33;;;15.30;99.90;;;;;;4989139;28;20061;-60
2021/09/24 06:25:10;;;;;;;41.78;28.17;;;15.30;99.90;;;;;;4988919;28;20394;-57
2021/09/24 06:27:38;;;;;;;42.60;26.92;;;15.40;99.90;;;;;;4989557;28;20034;-60
2021/09/24 06:30:09;;;;;;;46.00;28.63;;;15.30;99.90;;;;;;4988148;28;20041;-55
2021/09/24 06:32:35;;;;;;;43.38;27.70;;;15.30;99.90;;;;;;4987169;28;20702;-56
2021/09/24 06:35:01;;;;;;;43.92;28.17;;;15.30;99.90;;;;;;4988896;28;20106;-59
2021/09/24 06:37:27;;;;;;;49.92;32.22;;;15.40;99.90;;;;;;4988557;28;20026;-57
2021/09/24 06:39:53;;;;;;;42.20;27.98;;;15.40;99.90;;;;;;4985282;28;20050;-58
2021/09/24 06:42:18;;;;;;;49.28;28.70;;;15.40;99.90;;;;;;4989528;28;20126;-58
2021/09/24 06:44:44;;;;;;;44.88;29.63;;;15.50;99.90;;;;;;4987746;28;20470;-60
2021/09/24 06:47:11;;;;;;;42.95;29.70;;;15.50;99.90;;;;;;4989566;28;20037;-59
2021/09/24 06:49:36;;;;;;;41.25;26.67;;;15.50;99.90;;;;;;4989063;28;20061;-59
2021/09/24 06:52:04;;;;;;;38.55;26.00;;;15.50;99.90;;;;;;4988698;28;20122;-59
2021/09/24 06:54:30;;;;;;;42.92;27.55;;;15.60;99.90;;;;;;4988975;28;20042;-54
2021/09/24 06:56:56;;;;;;;39.53;27.67;;;15.60;99.90;;;;;;4987304;28;20089;-59
2021/09/24 06:59:22;;;;;;;41.50;25.40;;;15.70;99.90;;;;;;4988798;28;20014;-59
2021/09/24 07:01:48;;;;;;;44.45;26.95;;;15.70;99.90;;;;;;4992452;28;20049;-59
2021/09/24 07:04:15;;;;;;;42.75;25.83;;;15.70;99.90;;;;;;4993247;28;20494;-58
2021/09/24 07:06:40;;;;;;;34.30;22.48;;;15.90;99.90;;;;;;4991602;28;20117;-59
2021/09/24 07:09:07;;;;;;;26.75;19.33;;;16.00;99.90;;;;;;4993035;28;20498;-60
2021/09/24 07:11:33;;;;;;;34.63;20.42;;;16.10;99.90;;;;;;4973476;28;20038;-58
2021/09/24 07:13:59;;;;;;;27.80;20.27;;;16.20;99.90;;;;;;4991502;28;20113;-59
2021/09/24 07:16:25;;;;;;;26.23;17.70;;;16.40;99.90;;;;;;4989608;28;20149;-59
2021/09/24 07:18:50;;;;;;;26.75;18.90;;;16.60;99.90;;;;;;4990927;28;20030;-56
2021/09/24 07:21:16;;;;;;;25.63;16.23;;;16.70;99.90;;;;;;4991028;28;20026;-60
2021/09/24 07:23:42;;;;;;;28.20;16.80;;;16.60;99.90;;;;;;4992799;28;20030;-58
2021/09/24 07:26:08;;;;;;;25.40;15.85;;;16.70;99.90;;;;;;4992255;28;20799;-60
2021/09/24 07:28:34;;;;;;;25.05;15.77;;;16.70;99.90;;;;;;4992928;28;20037;-60
2021/09/24 07:31:00;;;;;;;28.30;17.08;;;16.60;99.90;;;;;;4990895;28;20026;-59
2021/09/24 07:33:26;;;;;;;29.45;18.23;;;16.60;99.90;;;;;;4991582;28;20125;-58
2021/09/24 07:35:51;;;;;;;30.73;19.52;;;16.70;99.90;;;;;;4992348;28;20121;-59
2021/09/24 07:38:18;;;;;;;24.60;14.50;;;16.60;99.90;;;;;;4991789;28;20074;-59
2021/09/24 07:40:44;;;;;;;24.95;13.93;;;16.60;99.90;;;;;;4991615;28;20025;-58
2021/09/24 07:43:11;;;;;;;22.58;14.60;;;16.70;99.90;;;;;;5000635;28;20031;-59
2021/09/24 07:45:36;;;;;;;24.30;13.57;;;16.80;99.90;;;;;;4975145;28;20030;-59
2021/09/24 07:48:05;;;;;;;17.90;12.70;;;16.90;99.90;;;;;;4992641;28;20502;-56
2021/09/24 07:50:31;;;;;;;32.53;13.50;;;17.10;99.90;;;;;;4992157;28;20030;-58
2021/09/24 07:52:57;;;;;;;19.85;13.82;;;17.00;99.90;;;;;;4992734;28;20053;-59
2021/09/24 07:55:23;;;;;;;22.40;12.63;;;17.00;99.90;;;;;;4992172;28;20077;-60
2021/09/24 07:57:52;;;;;;;17.63;12.90;;;17.10;99.90;;;;;;4989831;28;20041;-57
2021/09/24 08:00:18;;;;;;;21.60;12.90;;;17.20;99.90;;;;;;4991928;28;20014;-61
2021/09/24 08:02:43;;;;;;;20.08;12.93;;;17.40;99.90;;;;;;4992574;28;20033;-59
2021/09/24 08:05:10;;;;;;;16.05;11.18;;;17.60;99.90;;;;;;4990631;28;20034;-57
2021/09/24 08:07:36;;;;;;;20.58;11.73;;;17.80;99.90;;;;;;4992439;28;20038;-58
2021/09/24 08:10:03;;;;;;;17.88;11.15;;;18.00;99.90;;;;;;4991172;28;20030;-59
2021/09/24 08:12:29;;;;;;;19.77;10.32;;;18.60;99.90;;;;;;4990890;28;20034;-59
2021/09/24 08:14:55;;;;;;;17.77;9.13;;;19.00;99.90;;;;;;4991476;28;20038;-60
2021/09/24 08:17:21;;;;;;;13.25;7.68;;;19.40;99.90;;;;;;4991945;28;20019;-58
2021/09/24 08:19:46;;;;;;;13.02;7.80;;;19.80;99.90;;;;;;4991230;28;20026;-57
2021/09/24 08:22:12;;;;;;;13.85;8.05;;;20.20;99.90;;;;;;4991917;28;20023;-59
2021/09/24 08:24:38;;;;;;;13.05;7.88;;;20.30;99.90;;;;;;4992031;28;20026;-58
2021/09/24 08:27:04;;;;;;;14.27;7.60;;;20.20;99.90;;;;;;4991449;28;20058;-58
2021/09/24 08:29:30;;;;;;;10.57;6.63;;;20.00;99.90;;;;;;4990841;28;21475;-60
2021/09/24 08:31:55;;;;;;;13.80;7.13;;;20.00;99.90;;;;;;4988862;28;20026;-59
2021/09/24 08:34:21;;;;;;;8.55;5.97;;;19.50;99.90;;;;;;4991188;28;20501;-60
2021/09/24 08:36:47;;;;;;;11.95;6.57;;;19.60;99.90;;;;;;4992153;28;20031;-61
2021/09/24 08:39:12;;;;;;;9.05;6.53;;;19.50;99.90;;;;;;4991139;28;20014;-56
2021/09/24 08:41:39;;;;;;;11.27;6.78;;;19.50;99.90;;;;;;4990881;28;20050;-57
2021/09/24 08:44:05;;;;;;;9.95;5.65;;;19.20;99.90;;;;;;4991167;28;20486;-61
2021/09/24 08:46:34;;;;;;;12.55;5.78;;;19.20;99.90;;;;;;4991299;28;20038;-59
2021/09/24 08:49:07;;;;;;;9.57;6.65;;;19.30;99.90;;;;;;4991629;28;20015;-56
2021/09/24 08:51:36;;;;;;;12.30;4.90;;;19.60;99.90;;;;;;4990810;28;20023;-60
2021/09/24 08:54:04;;;;;;;13.73;5.90;;;19.90;99.90;;;;;;4991169;28;20572;-57
2021/09/24 08:56:29;;;;;;;8.40;4.75;;;20.40;99.90;;;;;;4990535;28;20038;-60
2021/09/24 08:58:55;;;;;;;7.78;4.90;;;20.80;99.90;;;;;;4991104;28;20506;-61
2021/09/24 09:01:21;;;;;;;7.25;4.43;;;20.80;99.90;;;;;;4989580;28;20481;-57
2021/09/24 09:03:47;;;;;;;10.25;4.85;;;20.70;99.90;;;;;;4991210;28;20026;-56
2021/09/24 09:06:16;;;;;;;5.03;4.40;;;20.30;99.90;;;;;;4990356;28;20101;-59
2021/09/24 09:08:42;;;;;;;7.65;5.05;;;20.10;99.90;;;;;;4987288;28;20031;-58
2021/09/24 09:11:14;;;;;;;9.02;5.57;;;19.80;99.90;;;;;;4990631;28;20058;-58
2021/09/24 09:13:53;;;;;;;9.75;5.07;;;19.70;99.90;;;;;;4990495;28;20081;-58
2021/09/24 09:16:35;;;;;;;9.35;5.55;;;19.60;99.90;;;;;;4990601;28;20045;-59
2021/09/24 09:19:08;;;;;;;10.70;6.40;;;19.90;99.90;;;;;;4990250;28;20400;-58
2021/09/24 09:21:37;;;;;;;;;;;20.10;99.90;;;;;;4989426;28;20033;-57
2021/09/24 09:24:15;;;;;;;9.13;6.00;;;20.10;99.90;;;;;;4987578;28;20012;-57
2021/09/24 09:26:41;;;;;;;9.80;6.05;;;20.50;99.90;;;;;;4987207;28;20113;-59
2021/09/24 09:29:10;;;;;;;15.50;7.43;;;20.10;99.90;;;;;;4987226;28;20097;-57
2021/09/24 09:31:35;;;;;;;9.52;6.75;;;20.00;99.90;;;;;;4988997;28;20085;-59
2021/09/24 09:34:03;;;;;;;11.05;7.47;;;20.10;99.90;;;;;;4990782;28;20026;-59
2021/09/24 09:36:42;;;;;;;13.05;6.45;;;20.10;99.90;;;;;;4989453;28;20038;-59
2021/09/24 09:39:10;;;;;;;13.35;7.10;;;20.20;99.90;;;;;;4998873;28;20026;-60
2021/09/24 09:41:36;;;;;;;8.63;5.95;;;20.50;99.90;;;;;;4988665;28;20058;-60
2021/09/24 09:44:02;;;;;;;11.00;6.57;;;20.70;99.90;;;;;;4990270;28;20023;-57
2021/09/24 09:46:34;;;;;;;12.63;7.30;;;21.00;99.90;;;;;;4990093;28;20031;-58
2021/09/24 09:49:05;;;;;;;9.85;7.53;;;21.00;99.90;;;;;;4990022;28;20022;-60
2021/09/24 09:51:32;;;;;;;14.27;8.95;;;20.90;99.90;;;;;;4989879;28;20092;-59
2021/09/24 09:53:57;;;;;;;13.75;7.68;;;21.00;99.90;;;;;;4983745;28;20082;-59
2021/09/24 09:56:42;;;;;;;10.63;7.90;;;21.10;99.90;;;;;;4990295;28;20026;-57
2021/09/24 09:59:25;;;;;;;18.35;9.65;;;21.10;99.90;;;;;;4990543;28;20398;-60
2021/09/24 10:02:07;;;;;;;13.43;7.75;;;20.90;99.90;;;;;;4987994;28;20057;-58
2021/09/24 10:04:47;;;;;;;9.35;6.80;;;20.80;99.90;;;;;;4988869;28;20465;-59
2021/09/24 10:07:18;;;;;;;15.00;7.40;;;21.20;99.90;;;;;;4989703;28;20654;-52
2021/09/24 10:09:46;;;;;;;12.77;7.20;;;21.10;99.90;;;;;;4990129;28;20026;-58
2021/09/24 10:12:15;;;;;;;12.60;7.53;;;21.30;99.90;;;;;;4989636;28;20053;-59
2021/09/24 10:14:41;;;;;;;10.82;6.93;;;21.30;99.90;;;;;;4987803;28;20056;-52
2021/09/24 10:17:07;;;;;;;10.68;7.07;;;21.20;99.90;;;;;;4989822;28;20022;-59
2021/09/24 10:19:34;;;;;;;10.02;6.63;;;21.50;99.90;;;;;;4987839;28;20030;-54
2021/09/24 10:21:59;;;;;;;11.57;6.10;;;21.80;99.90;;;;;;4989916;28;20026;-59
2021/09/24 10:24:25;;;;;;;8.50;5.88;;;21.90;99.90;;;;;;4989577;28;20034;-61
2021/09/24 10:27:03;;;;;;;10.85;6.63;;;21.90;99.90;;;;;;4991554;28;20066;-60
2021/09/24 10:29:33;;;;;;;6.28;5.28;;;21.60;99.90;;;;;;4990917;28;20034;-60
2021/09/24 10:32:17;;;;;;;7.28;5.25;;;21.90;99.90;;;;;;4991567;28;20050;-58
2021/09/24 10:34:51;;;;;;;11.50;5.40;;;22.30;99.90;;;;;;4988875;28;20022;-60
2021/09/24 10:37:18;;;;;;;8.27;5.70;;;21.50;99.90;;;;;;4991229;28;20056;-60
2021/09/24 10:39:47;;;;;;;10.48;5.20;;;21.50;99.90;;;;;;4989029;28;20363;-60
2021/09/24 10:42:24;;;;;;;10.23;5.18;;;21.70;99.90;;;;;;4989524;28;20107;-55
2021/09/24 10:45:18;;;;;;;8.90;5.03;;;21.70;99.90;;;;;;4989112;28;20738;-61
2021/09/24 10:47:50;;;;;;;9.93;5.18;;;22.10;99.90;;;;;;4986955;28;20097;-60
2021/09/24 10:50:31;;;;;;;7.20;4.80;;;22.10;99.50;;;;;;4988963;28;20030;-59
2021/09/24 10:53:14;;;;;;;9.23;6.05;;;22.10;99.90;;;;;;4988217;28;20057;-59
2021/09/24 10:55:53;;;;;;;7.43;4.80;;;21.90;99.80;;;;;;4987093;28;20026;-60
2021/09/24 10:58:28;;;;;;;8.57;4.53;;;22.00;99.80;;;;;;4988896;28;20297;-59
2021/09/24 11:00:54;;;;;;;13.90;4.53;;;22.10;99.30;;;;;;4988558;28;20030;-58
2021/09/24 11:03:22;;;;;;;6.82;4.32;;;22.20;99.40;;;;;;4989701;28;20030;-60
2021/09/24 11:06:07;;;;;;;9.73;5.40;;;22.20;99.20;;;;;;4988950;28;20034;-59
2021/09/24 11:08:36;;;;;;;10.13;5.05;;;21.90;98.90;;;;;;4989093;28;20601;-59
2021/09/24 11:11:23;;;;;;;12.35;4.68;;;21.90;99.70;;;;;;4988707;28;20026;-59
2021/09/24 11:13:54;;;;;;;6.63;4.45;;;22.20;99.50;;;;;;4986804;28;20053;-58
2021/09/24 11:16:28;;;;;;;6.53;3.90;;;22.50;99.30;;;;;;4987078;28;20022;-59
2021/09/24 11:18:56;;;;;;;7.85;4.35;;;22.70;98.70;;;;;;4988268;28;20034;-60
2021/09/24 11:21:30;;;;;;;7.53;4.35;;;22.60;98.00;;;;;;4983350;28;20054;-58
2021/09/24 11:23:58;;;;;;;7.10;4.28;;;22.40;98.70;;;;;;4990319;28;20045;-59
2021/09/24 11:26:29;;;;;;;9.15;3.85;;;22.50;98.50;;;;;;4987174;28;20041;-60
2021/09/24 11:29:08;;;;;;;8.60;3.90;;;22.40;98.80;;;;;;4986529;28;20065;-60
2021/09/24 11:31:53;;;;;;;5.15;3.80;;;22.40;99.00;;;;;;4989209;28;20062;-60
2021/09/24 11:34:51;;;;;;;6.35;4.50;;;22.20;98.90;;;;;;4989184;28;20022;-59
2021/09/24 11:37:25;;;;;;;7.72;4.35;;;22.10;99.90;;;;;;4966875;28;20034;-52
2021/09/24 11:40:06;;;;;;;8.68;4.03;;;22.10;98.90;;;;;;4987449;28;20508;-61
2021/09/24 11:42:38;;;;;;;5.43;3.45;;;22.30;99.00;;;;;;4989329;28;20050;-60
2021/09/24 11:45:08;;;;;;;4.50;3.50;;;22.50;99.00;;;;;;4989075;28;20026;-60
2021/09/24 11:47:40;;;;;;;5.20;3.60;;;22.60;98.20;;;;;;4992784;28;20600;-58
2021/09/24 11:50:07;;;;;;;6.65;3.00;;;22.30;97.80;;;;;;4991618;28;20156;-60
2021/09/24 11:52:57;;;;;;;6.47;3.55;;;22.30;98.50;;;;;;4992304;28;20038;-55
2021/09/24 11:55:34;;;;;;;6.68;3.13;;;21.90;99.20;;;;;;4985676;28;20108;-58
2021/09/24 11:58:05;;;;;;;5.50;3.53;;;21.70;99.90;;;;;;4992075;28;20034;-57
2021/09/24 12:00:35;;;;;;;5.70;4.28;;;21.50;99.30;;;;;;4990666;28;20028;-58
2021/09/24 12:03:28;;;;;;;8.82;3.85;;;21.30;99.90;;;;;;4991539;28;20026;-58
2021/09/24 12:05:58;;;;;;;6.38;3.35;;;21.20;99.90;;;;;;4986354;28;20054;-59
2021/09/24 12:08:30;;;;;;;6.75;4.03;;;21.00;99.90;;;;;;4983894;28;20278;-59
2021/09/24 12:11:05;;;;;;;11.30;4.07;;;21.20;99.90;;;;;;4987132;28;20117;-57
2021/09/24 12:13:39;;;;;;;7.90;3.50;;;21.10;99.90;;;;;;4990326;28;20034;-58
2021/09/24 12:16:06;;;;;;;7.80;4.00;;;21.20;99.90;;;;;;4991061;28;20516;-58
2021/09/24 12:18:44;;;;;;;7.72;3.72;;;21.40;99.90;;;;;;4992199;28;20022;-57
2021/09/24 12:21:11;;;;;;;7.38;4.18;;;21.40;99.90;;;;;;4989445;28;20038;-60
2021/09/24 12:23:37;;;;;;;6.97;4.93;;;21.20;99.70;;;;;;4961311;28;20051;-59
2021/09/24 12:26:05;;;;;;;8.80;3.88;;;21.20;99.90;;;;;;4966815;28;20066;-60
2021/09/24 12:28:31;;;;;;;7.93;3.95;;;21.00;99.90;;;;;;4968176;28;20027;-56
2021/09/24 12:30:57;;;;;;;8.10;4.18;;;21.00;99.90;;;;;;4969617;28;20030;-58
2021/09/24 12:33:23;;;;;;;7.30;4.00;;;20.80;99.90;;;;;;4970114;28;20424;-59
2021/09/24 12:36:05;;;;;;;9.10;4.40;;;20.80;99.90;;;;;;4965241;28;20062;-61
2021/09/24 12:38:33;;;;;;;6.13;4.03;;;20.70;99.90;;;;;;4972431;28;20015;-58
2021/09/24 12:41:07;;;;;;;7.45;4.30;;;20.70;99.90;;;;;;4962061;28;20039;-56